createdAt,value
2018-09-10T00:03:31.678Z,18.88
2018-09-10T00:08:24.216Z,18.77
2018-09-10T00:13:16.800Z,18.76
2018-09-10T00:18:09.333Z,18.74
2018-09-10T00:23:01.943Z,18.62
2018-09-10T00:27:54.466Z,18.56
2018-09-10T00:32:47.023Z,18.56
2018-09-10T00:37:39.588Z,18.63
2018-09-10T00:42:32.147Z,18.59
2018-09-10T00:47:24.736Z,18.52
2018-09-10T00:52:17.282Z,18.44
2018-09-10T00:57:09.807Z,18.49
2018-09-10T01:02:02.386Z,18.41
2018-09-10T01:06:55.003Z,18.31
2018-09-10T01:11:47.667Z,18.22
2018-09-10T01:16:40.290Z,18.13
2018-09-10T01:21:32.889Z,18.09
2018-09-10T01:26:25.500Z,18.03
2018-09-10T01:31:18.072Z,17.97
2018-09-10T01:36:10.630Z,17.88
2018-09-10T01:41:03.165Z,17.79
2018-09-10T01:45:55.764Z,17.74
2018-09-10T01:50:48.535Z,17.71
2018-09-10T01:55:41.164Z,17.72
2018-09-10T02:00:33.808Z,17.81
2018-09-10T02:05:26.387Z,17.84
2018-09-10T02:10:18.996Z,17.80
2018-09-10T02:15:11.648Z,17.79
2018-09-10T02:20:04.271Z,17.78
2018-09-10T02:24:56.897Z,17.76
2018-09-10T02:29:49.486Z,17.75
2018-09-10T02:34:42.017Z,17.74
2018-09-10T02:39:34.568Z,17.71
2018-09-10T02:44:27.222Z,17.68
2018-09-10T02:49:19.807Z,17.63
2018-09-10T02:54:12.383Z,17.60
2018-09-10T02:59:05.311Z,17.67
2018-09-10T03:03:57.935Z,17.65
2018-09-10T03:08:50.542Z,17.63
2018-09-10T03:13:43.096Z,17.59
2018-09-10T03:18:42.390Z,17.53
2018-09-10T03:23:34.931Z,17.49
2018-09-10T03:28:27.456Z,17.47
2018-09-10T03:33:20.243Z,17.42
2018-09-10T03:38:12.859Z,17.34
2018-09-10T03:43:05.710Z,17.25
2018-09-10T03:47:58.368Z,17.19
2018-09-10T03:52:51.048Z,17.11
2018-09-10T03:57:43.767Z,17.09
2018-09-10T04:02:36.399Z,17.10
2018-09-10T04:07:29.010Z,17.04
2018-09-10T04:12:22.046Z,16.99
2018-09-10T04:22:28.966Z,16.93
2018-09-10T04:27:21.547Z,16.91
2018-09-10T04:32:14.077Z,16.92
2018-09-10T04:37:06.663Z,16.90
2018-09-10T04:41:59.236Z,16.91
2018-09-10T04:46:51.859Z,16.92
2018-09-10T04:51:44.443Z,16.95
2018-09-10T04:56:36.982Z,16.97
2018-09-10T05:01:29.540Z,17.02
2018-09-10T05:06:22.177Z,17.09
2018-09-10T05:11:14.783Z,17.11
2018-09-10T05:16:07.469Z,17.08
2018-09-10T05:21:00.037Z,17.08
2018-09-10T05:25:52.614Z,17.09
2018-09-10T05:30:45.291Z,17.11
2018-09-10T05:35:37.874Z,17.16
2018-09-10T05:40:30.513Z,17.20
2018-09-10T05:45:23.185Z,17.28
2018-09-10T05:50:15.808Z,17.33
2018-09-10T05:55:08.478Z,17.37
2018-09-10T06:00:01.012Z,17.41
2018-09-10T06:04:53.852Z,17.42
2018-09-10T06:09:46.627Z,17.39
2018-09-10T06:14:39.250Z,17.41
2018-09-10T06:19:32.024Z,17.50
2018-09-10T06:24:24.643Z,17.68
2018-09-10T06:29:17.403Z,17.87
2018-09-10T06:34:10.155Z,17.97
2018-09-10T06:39:03.486Z,18.09
2018-09-10T06:43:56.466Z,18.21
2018-09-10T06:48:49.258Z,18.36
2018-09-10T06:53:41.794Z,18.52
2018-09-10T06:58:35.170Z,18.64
2018-09-10T07:03:27.738Z,18.80
2018-09-10T07:08:20.559Z,19.05
2018-09-10T07:13:13.146Z,19.40
2018-09-10T07:18:05.868Z,19.75
2018-09-10T07:22:58.466Z,20.18
2018-09-10T07:27:51.002Z,20.43
2018-09-10T07:32:43.547Z,20.53
2018-09-10T07:37:36.225Z,20.50
2018-09-10T07:42:29.122Z,20.48
2018-09-10T07:47:21.681Z,20.51
2018-09-10T07:52:14.226Z,20.63
2018-09-10T07:57:06.935Z,20.94
2018-09-10T08:01:59.655Z,21.23
2018-09-10T08:06:52.224Z,21.57
2018-09-10T08:11:44.853Z,21.97
2018-09-10T08:16:37.569Z,22.35
2018-09-10T08:21:30.106Z,22.63
2018-09-10T08:26:22.854Z,22.84
2018-09-10T08:31:15.433Z,22.99
2018-09-10T08:36:08.139Z,23.10
2018-09-10T08:41:00.670Z,23.20
2018-09-10T08:45:53.270Z,23.37
2018-09-10T08:50:45.814Z,23.43
2018-09-10T08:55:38.559Z,23.48
2018-09-10T09:00:31.105Z,23.55
2018-09-10T09:05:23.704Z,23.57
2018-09-10T09:10:16.298Z,23.57
2018-09-10T09:15:08.828Z,23.53
2018-09-10T09:20:01.379Z,23.50
2018-09-10T09:24:53.974Z,23.45
2018-09-10T09:29:46.540Z,23.40
2018-09-10T09:34:45.016Z,23.40
2018-09-10T09:39:43.359Z,23.45
2018-09-10T09:44:41.746Z,23.47
2018-09-10T09:49:34.363Z,23.49
2018-09-10T09:54:27.097Z,23.52
2018-09-10T09:59:19.707Z,23.57
2018-09-10T10:04:13.017Z,23.63
2018-09-10T10:09:07.883Z,23.69
2018-09-10T10:14:00.720Z,23.78
2018-09-10T10:18:53.915Z,23.93
2018-09-10T10:23:46.469Z,24.13
2018-09-10T10:28:39.302Z,24.40
2018-09-10T10:33:32.172Z,24.60
2018-09-10T10:38:24.762Z,24.70
2018-09-10T10:43:17.364Z,24.69
2018-09-10T10:48:09.966Z,24.65
2018-09-10T10:53:02.728Z,24.64
2018-09-10T10:57:55.310Z,24.68
2018-09-10T11:02:51.787Z,24.71
2018-09-10T11:07:44.447Z,24.82
2018-09-10T11:12:37.129Z,24.88
2018-09-10T11:17:30.162Z,24.91
2018-09-10T11:22:22.818Z,24.92
2018-09-10T11:27:15.600Z,24.96
2018-09-10T11:32:08.319Z,25.18
2018-09-10T11:37:01.000Z,25.51
2018-09-10T11:41:53.672Z,25.62
2018-09-10T11:46:46.350Z,25.69
2018-09-10T11:51:39.164Z,25.72
2018-09-10T11:56:31.831Z,25.77
2018-09-10T12:01:24.491Z,25.79
2018-09-10T12:06:17.087Z,25.78
2018-09-10T12:11:09.711Z,25.79
2018-09-10T12:16:02.355Z,25.79
2018-09-10T12:20:54.992Z,25.80
2018-09-10T12:25:47.886Z,25.79
2018-09-10T12:30:40.470Z,25.79
2018-09-10T12:35:33.085Z,25.76
2018-09-10T12:40:25.796Z,25.73
2018-09-10T12:45:18.344Z,25.67
2018-09-10T12:50:10.894Z,25.63
2018-09-10T12:55:03.822Z,25.63
2018-09-10T12:59:57.217Z,25.63
2018-09-10T13:04:49.897Z,25.64
2018-09-10T13:09:42.786Z,25.66
2018-09-10T13:14:35.641Z,25.68
2018-09-10T13:19:28.294Z,25.68
2018-09-10T13:24:20.833Z,25.69
2018-09-10T13:29:13.423Z,25.65
2018-09-10T13:34:06.050Z,25.62
2018-09-10T13:38:58.694Z,25.63
2018-09-10T13:43:51.399Z,25.63
2018-09-10T13:48:43.953Z,25.60
2018-09-10T13:53:36.551Z,25.58
2018-09-10T13:58:29.217Z,25.57
2018-09-10T14:03:21.774Z,25.57
2018-09-10T14:08:14.466Z,25.59
2018-09-10T14:13:07.202Z,25.61
2018-09-10T14:17:59.816Z,25.64
2018-09-10T14:22:52.350Z,25.66
2018-09-10T14:27:45.070Z,25.68
2018-09-10T14:32:37.832Z,25.65
2018-09-10T14:37:30.414Z,25.58
2018-09-10T14:42:22.982Z,25.56
2018-09-10T14:47:15.550Z,25.57
2018-09-10T14:52:08.110Z,25.57
2018-09-10T14:57:00.739Z,25.57
2018-09-10T15:01:53.396Z,25.55
2018-09-10T15:06:46.391Z,25.51
2018-09-10T15:11:39.090Z,25.50
2018-09-10T15:16:31.912Z,25.45
2018-09-10T15:21:24.417Z,25.43
2018-09-10T15:26:17.049Z,25.40
2018-09-10T15:31:09.584Z,25.39
2018-09-10T15:36:02.201Z,25.38
2018-09-10T15:40:54.837Z,25.35
2018-09-10T15:45:47.409Z,25.30
2018-09-10T15:50:39.979Z,25.27
2018-09-10T15:55:32.494Z,25.24
2018-09-10T16:00:25.362Z,25.18
2018-09-10T16:05:17.918Z,25.13
2018-09-10T16:10:10.699Z,25.10
2018-09-10T16:15:03.569Z,25.04
2018-09-10T16:19:56.165Z,25.00
2018-09-10T16:24:48.886Z,24.95
2018-09-10T16:29:41.414Z,24.90
2018-09-10T16:34:34.006Z,24.86
2018-09-10T16:39:26.558Z,24.80
2018-09-10T16:44:19.131Z,24.75
2018-09-10T16:49:11.702Z,24.69
2018-09-10T16:54:04.337Z,24.62
2018-09-10T16:58:56.973Z,24.54
2018-09-10T17:03:49.530Z,24.48
2018-09-10T17:08:42.358Z,24.43
2018-09-10T17:13:34.906Z,24.37
2018-09-10T17:18:27.443Z,24.30
2018-09-10T17:23:20.011Z,24.28
2018-09-10T17:28:12.625Z,24.20
2018-09-10T17:33:05.423Z,24.13
2018-09-10T17:37:58.090Z,24.08
2018-09-10T17:42:50.776Z,23.99
2018-09-10T17:47:43.315Z,23.92
2018-09-10T17:52:35.906Z,23.87
2018-09-10T17:57:28.471Z,23.83
2018-09-10T18:02:21.125Z,23.79
2018-09-10T18:07:13.701Z,23.74
2018-09-10T18:12:06.300Z,23.69
2018-09-10T18:16:58.883Z,23.64
2018-09-10T18:21:51.467Z,23.58
2018-09-10T18:26:44.059Z,23.54
2018-09-10T18:31:36.558Z,23.50
2018-09-10T18:36:29.098Z,23.46
2018-09-10T18:41:21.713Z,23.41
2018-09-10T18:46:14.306Z,23.35
2018-09-10T18:51:06.901Z,23.32
2018-09-10T18:55:59.546Z,23.28
2018-09-10T19:00:52.157Z,23.23
2018-09-10T19:05:44.634Z,23.18
2018-09-10T19:10:37.248Z,23.11
2018-09-10T19:15:29.878Z,23.07
2018-09-10T19:20:22.498Z,23.02
2018-09-10T19:25:15.153Z,22.98
2018-09-10T19:30:07.739Z,22.99
2018-09-10T19:35:00.309Z,22.94
2018-09-10T19:39:52.998Z,22.84
2018-09-10T19:44:45.587Z,22.77
2018-09-10T19:49:38.127Z,22.66
2018-09-10T19:54:30.662Z,22.65
2018-09-10T19:59:26.817Z,22.59
2018-09-10T20:04:19.319Z,22.52
2018-09-10T20:09:11.869Z,22.45
2018-09-10T20:14:04.482Z,22.40
2018-09-10T20:18:57.055Z,22.37
2018-09-10T20:23:49.667Z,22.24
2018-09-10T20:28:42.408Z,22.01
2018-09-10T20:33:40.859Z,21.86
2018-09-10T20:38:33.426Z,21.85
2018-09-10T20:43:26.001Z,21.91
2018-09-10T20:48:18.621Z,21.91
2018-09-10T20:53:11.242Z,21.87
2018-09-10T20:58:03.821Z,21.86
2018-09-10T21:02:56.431Z,21.82
2018-09-10T21:07:49.030Z,21.78
2018-09-10T21:12:42.589Z,21.72
2018-09-10T21:17:35.308Z,21.65
2018-09-10T21:22:27.984Z,21.60
2018-09-10T21:27:20.644Z,21.57
2018-09-10T21:32:13.411Z,21.55
2018-09-10T21:37:06.131Z,21.54
2018-09-10T21:41:58.691Z,21.44
2018-09-10T21:46:51.423Z,21.40
2018-09-10T21:51:44.002Z,21.39
2018-09-10T21:56:36.573Z,21.44
2018-09-10T22:01:29.190Z,21.43
2018-09-10T22:06:21.809Z,21.41
2018-09-10T22:11:14.563Z,21.29
2018-09-10T22:16:07.099Z,21.10
2018-09-10T22:20:59.681Z,21.05
2018-09-10T22:25:52.239Z,21.00
2018-09-10T22:30:44.862Z,20.95
2018-09-10T22:35:37.451Z,20.90
2018-09-10T22:40:30.007Z,20.90
2018-09-10T22:45:22.705Z,20.87
2018-09-10T22:50:15.669Z,20.83
2018-09-10T22:55:08.283Z,20.80
2018-09-10T23:00:01.006Z,20.82
2018-09-10T23:04:53.577Z,20.75
2018-09-10T23:09:46.166Z,20.73
2018-09-10T23:14:38.847Z,20.73
2018-09-10T23:19:31.390Z,20.70
2018-09-10T23:24:23.979Z,20.71
2018-09-10T23:29:16.645Z,20.68
2018-09-10T23:34:09.196Z,20.67
2018-09-10T23:39:01.876Z,20.65
2018-09-10T23:43:54.626Z,20.61
2018-09-10T23:48:47.229Z,20.57
2018-09-10T23:53:39.862Z,20.51
2018-09-10T23:58:32.370Z,20.43
